This is the latest recevied weather packets stored in our database for station/object KQ4UWH. If no packets are shown the sender has not sent any weather packets the latest 10 day(s).
| Time | Temp. | Humidity | Pressure | Rain* | Wind** | Luminosity | Snow |
|---|---|---|---|---|---|---|---|
| 1777732660 | 13.89° C | 69% | 1239.7 hPa | 0 mm | - | 206 W/m² | - |
| 1777732358 | 13.33° C | 71% | 1239.7 hPa | 0 mm | - | 192 W/m² | - |
| 1777732056 | 13.33° C | 73% | 1239.7 hPa | 0 mm | - | 197 W/m² | - |
| 1777731752 | 13.33° C | 75% | 1239.7 hPa | 0 mm | - | 207 W/m² | - |
| 1777731449 | 13.33° C | 72% | 1239.7 hPa | 0 mm | - | 178 W/m² | - |
| 1777731148 | 13.33° C | 74% | 1239.7 hPa | 0 mm | - | 163 W/m² | - |
| 1777730846 | 13.33° C | 76% | 1239.7 hPa | 0 mm | - | 187 W/m² | - |
| 1777730543 | 12.78° C | 77% | 1239.7 hPa | 0 mm | - | 209 W/m² | - |
| 1777730238 | 12.78° C | 77% | 1239.7 hPa | 0 mm | - | 193 W/m² | - |
| 1777729936 | 12.22° C | 77% | 1239.7 hPa | 0 mm | - | 158 W/m² | - |
| 1777729631 | 12.22° C | 77% | 1239.7 hPa | 0 mm | - | 136 W/m² | - |
| 1777729329 | 12.22° C | 76% | 1239.7 hPa | 0 mm | - | 129 W/m² | - |
| 1777729025 | 12.22° C | 77% | 1239.7 hPa | 0 mm | - | 130 W/m² | - |
| 1777728722 | 12.22° C | 77% | 1239.7 hPa | 0 mm | - | 139 W/m² | - |
| 1777728419 | 12.22° C | 79% | 1239.7 hPa | 0 mm | - | 119 W/m² | - |
| 1777728116 | 11.67° C | 83% | 1239.7 hPa | 0 mm | - | 123 W/m² | - |
| 1777727813 | 11.67° C | 84% | 1239.7 hPa | 0 mm | - | 146 W/m² | - |
| 1777727510 | 11.67° C | 82% | 1239.7 hPa | 0 mm | - | 104 W/m² | - |
| 1777727207 | 11.67° C | 82% | 1239.7 hPa | 0 mm | - | 82 W/m² | - |
| 1777726905 | 11.67° C | 85% | 1239.7 hPa | 0 mm | - | 71 W/m² | - |
| 1777726601 | 11.11° C | 89% | 1239.7 hPa | 0 mm | - | 84 W/m² | - |
| 1777726298 | 11.11° C | 91% | 1239.7 hPa | 0 mm | - | 72 W/m² | - |
| 1777725995 | 11.11° C | 91% | 1239.7 hPa | 0 mm | - | 52 W/m² | - |
| 1777725692 | 10.56° C | 90% | 1239.7 hPa | 0 mm | - | 41 W/m² | - |
| 1777725390 | 10.56° C | 92% | 1239.7 hPa | 0 mm | - | 37 W/m² | - |
* Rain latest hour (hover to see other rain measurements)
** Current wind speed in m/s (hover to see current wind gust speed)